UAL1455 KSAN-KDEN
Flight info
| Callsign | UAL1455 |
|---|---|
| Flight time | 1h 38m |
| Altitude | 39000 |
| Route | ZZOOO4 MTBAL EED J236 TBC CRUDD TBARR4 |
| Aircraft | B38M/M-SDE1FGHILORVWXY/HB1 |
Departure
| Time | 2026-04-25 22:40 |
|---|---|
| Airport | San Diego International Airport (KSAN) |
Arrival
| Time | 2026-04-26 00:18 |
|---|---|
| Airport | Denver International Airport (KDEN) |
| Time | Latitude | Longitude | Altitude | Speed | Heading |
|---|---|---|---|---|---|
| 2026-04-25 22:00 | 32.73380 | -117.19814 | 25 ft | 0 kts | 207° |
| 2026-04-25 22:27 | 32.73391 | -117.19807 | 29 ft | 4 kts | 211° |
| 2026-04-25 22:27 | 32.73413 | -117.19789 | 27 ft | 4 kts | 219° |
| 2026-04-25 22:27 | 32.73434 | -117.19770 | 27 ft | 4 kts | 210° |
| 2026-04-25 22:27 | 32.73445 | -117.19761 | 27 ft | 4 kts | 125° |
| 2026-04-25 22:28 | 32.73444 | -117.19759 | 26 ft | 0 kts | 106° |
| 2026-04-25 22:32 | 32.73441 | -117.19743 | 25 ft | 6 kts | 106° |
| 2026-04-25 22:32 | 32.73426 | -117.19682 | 27 ft | 9 kts | 106° |
| 2026-04-25 22:32 | 32.73406 | -117.19603 | 26 ft | 11 kts | 106° |
| 2026-04-25 22:33 | 32.73384 | -117.19510 | 27 ft | 13 kts | 106° |
| 2026-04-25 22:33 | 32.73357 | -117.19402 | 27 ft | 15 kts | 106° |
| 2026-04-25 22:33 | 32.73327 | -117.19277 | 28 ft | 17 kts | 106° |
| 2026-04-25 22:33 | 32.73294 | -117.19140 | 26 ft | 18 kts | 106° |
| 2026-04-25 22:34 | 32.73256 | -117.18989 | 26 ft | 20 kts | 105° |
| 2026-04-25 22:34 | 32.73219 | -117.18827 | 28 ft | 21 kts | 105° |
| 2026-04-25 22:34 | 32.73176 | -117.18653 | 31 ft | 23 kts | 106° |
| 2026-04-25 22:34 | 32.73130 | -117.18465 | 32 ft | 25 kts | 106° |
| 2026-04-25 22:35 | 32.73082 | -117.18264 | 29 ft | 26 kts | 105° |
| 2026-04-25 22:35 | 32.73031 | -117.18052 | 27 ft | 27 kts | 106° |
| 2026-04-25 22:35 | 32.72977 | -117.17831 | 28 ft | 25 kts | 107° |
| 2026-04-25 22:35 | 32.72951 | -117.17711 | 28 ft | 9 kts | 86° |
| 2026-04-25 22:36 | 32.72952 | -117.17695 | 28 ft | 0 kts | 82° |
| 2026-04-25 22:36 | 32.72952 | -117.17693 | 28 ft | 0 kts | 82° |
| 2026-04-25 22:36 | 32.72952 | -117.17691 | 28 ft | 0 kts | 82° |
| 2026-04-25 22:37 | 32.72952 | -117.17690 | 28 ft | 1 kts | 83° |
| 2026-04-25 22:38 | 32.72964 | -117.17645 | 29 ft | 12 kts | 71° |
| 2026-04-25 22:38 | 32.73034 | -117.17646 | 28 ft | 14 kts | 284° |
| 2026-04-25 22:38 | 32.73058 | -117.17732 | 28 ft | 0 kts | 286° |
| 2026-04-25 22:38 | 32.73059 | -117.17736 | 32 ft | 0 kts | 286° |
| 2026-04-25 22:39 | 32.73060 | -117.17742 | 31 ft | 11 kts | 286° |
| 2026-04-25 22:39 | 32.73163 | -117.18169 | 30 ft | 95 kts | 286° |
| 2026-04-25 22:39 | 32.73414 | -117.19198 | 27 ft | 162 kts | 285° |
| 2026-04-25 22:39 | 32.73781 | -117.20595 | 522 ft | 191 kts | 286° |
| 2026-04-25 22:40 | 32.74190 | -117.22151 | 1516 ft | 197 kts | 284° |
| 2026-04-25 22:40 | 32.74542 | -117.23718 | 2749 ft | 200 kts | 281° |
| 2026-04-25 22:40 | 32.74873 | -117.25364 | 3970 ft | 207 kts | 283° |
| 2026-04-25 22:40 | 32.75246 | -117.27094 | 4958 ft | 227 kts | 284° |
| 2026-04-25 22:41 | 32.75681 | -117.28952 | 6046 ft | 231 kts | 284° |
| 2026-04-25 22:41 | 32.76122 | -117.30795 | 7187 ft | 235 kts | 284° |
| 2026-04-25 22:41 | 32.76567 | -117.32702 | 8067 ft | 243 kts | 281° |
| 2026-04-25 22:41 | 32.76644 | -117.34685 | 8675 ft | 252 kts | 252° |
| 2026-04-25 22:42 | 32.75757 | -117.36541 | 9282 ft | 266 kts | 224° |
| 2026-04-25 22:42 | 32.74165 | -117.37644 | 10079 ft | 273 kts | 197° |
| 2026-04-25 22:42 | 32.72273 | -117.37605 | 11300 ft | 271 kts | 169° |
| 2026-04-25 22:42 | 32.70636 | -117.36573 | 12687 ft | 262 kts | 153° |
| 2026-04-25 22:43 | 32.69288 | -117.35069 | 13434 ft | 285 kts | 136° |
| 2026-04-25 22:43 | 32.68216 | -117.32908 | 13596 ft | 323 kts | 123° |
| 2026-04-25 22:43 | 32.67282 | -117.30502 | 14502 ft | 315 kts | 128° |
| 2026-04-25 22:43 | 32.66011 | -117.28540 | 15557 ft | 293 kts | 143° |
| 2026-04-25 22:44 | 32.64648 | -117.26693 | 16247 ft | 303 kts | 140° |
| 2026-04-25 22:44 | 32.63422 | -117.24542 | 16571 ft | 334 kts | 122° |
| 2026-04-25 22:44 | 32.62830 | -117.21732 | 16771 ft | 367 kts | 101° |
| 2026-04-25 22:44 | 32.62584 | -117.18650 | 17071 ft | 384 kts | 102° |
| 2026-04-25 22:45 | 32.62476 | -117.15415 | 17463 ft | 403 kts | 86° |
| 2026-04-25 22:45 | 32.63360 | -117.12244 | 18212 ft | 411 kts | 60° |
| 2026-04-25 22:45 | 32.65193 | -117.09630 | 18724 ft | 415 kts | 36° |
| 2026-04-25 22:45 | 32.67490 | -117.07572 | 19340 ft | 416 kts | 38° |
| 2026-04-25 22:46 | 32.69701 | -117.05329 | 19884 ft | 419 kts | 40° |
| 2026-04-25 22:46 | 32.71886 | -117.03015 | 20420 ft | 423 kts | 41° |
| 2026-04-25 22:46 | 32.74070 | -117.00656 | 20963 ft | 426 kts | 41° |
| 2026-04-25 22:46 | 32.76259 | -116.98265 | 21536 ft | 430 kts | 41° |
| 2026-04-25 22:47 | 32.78462 | -116.95842 | 22044 ft | 433 kts | 42° |
| 2026-04-25 22:47 | 32.80676 | -116.93397 | 22587 ft | 436 kts | 42° |
| 2026-04-25 22:47 | 32.82906 | -116.90931 | 23102 ft | 439 kts | 42° |
| 2026-04-25 22:47 | 32.85154 | -116.88443 | 23626 ft | 443 kts | 42° |
| 2026-04-25 22:48 | 32.87416 | -116.85936 | 24036 ft | 446 kts | 42° |
| 2026-04-25 22:48 | 32.89651 | -116.83457 | 24547 ft | 445 kts | 42° |
| 2026-04-25 22:48 | 32.91927 | -116.80938 | 24926 ft | 450 kts | 42° |
| 2026-04-25 22:48 | 32.94215 | -116.78393 | 25292 ft | 453 kts | 42° |
| 2026-04-25 22:49 | 32.96527 | -116.75828 | 25688 ft | 456 kts | 42° |
| 2026-04-25 22:49 | 32.98863 | -116.73234 | 26022 ft | 460 kts | 41° |
| 2026-04-25 22:49 | 33.01204 | -116.70630 | 26423 ft | 462 kts | 41° |
| 2026-04-25 22:49 | 33.03566 | -116.68003 | 26776 ft | 466 kts | 41° |
| 2026-04-25 22:50 | 33.05943 | -116.65355 | 27096 ft | 469 kts | 41° |
| 2026-04-25 22:50 | 33.08333 | -116.62691 | 27453 ft | 472 kts | 41° |
| 2026-04-25 22:50 | 33.10745 | -116.60001 | 27787 ft | 476 kts | 41° |
| 2026-04-25 22:50 | 33.13165 | -116.57299 | 28132 ft | 479 kts | 41° |
| 2026-04-25 22:51 | 33.15598 | -116.54580 | 28458 ft | 481 kts | 41° |
| 2026-04-25 22:51 | 33.18047 | -116.51844 | 28856 ft | 482 kts | 41° |
| 2026-04-25 22:51 | 33.20501 | -116.49098 | 29133 ft | 486 kts | 41° |
| 2026-04-25 22:51 | 33.22975 | -116.46327 | 29457 ft | 489 kts | 41° |
| 2026-04-25 22:52 | 33.25460 | -116.43541 | 29790 ft | 491 kts | 40° |
| 2026-04-25 22:52 | 33.27961 | -116.40737 | 30049 ft | 495 kts | 40° |
| 2026-04-25 22:52 | 33.30476 | -116.37914 | 30313 ft | 497 kts | 40° |
| 2026-04-25 22:52 | 33.32145 | -116.36040 | 30504 ft | 498 kts | 40° |
| 2026-04-25 22:53 | 33.35542 | -116.32222 | 30835 ft | 503 kts | 40° |
| 2026-04-25 22:53 | 33.38093 | -116.29351 | 31050 ft | 506 kts | 40° |
| 2026-04-25 22:53 | 33.40669 | -116.26450 | 31318 ft | 509 kts | 40° |
| 2026-04-25 22:53 | 33.43253 | -116.23537 | 31531 ft | 512 kts | 40° |
| 2026-04-25 22:54 | 33.45856 | -116.20599 | 31694 ft | 517 kts | 40° |
| 2026-04-25 22:54 | 33.48477 | -116.17639 | 32022 ft | 518 kts | 41° |
| 2026-04-25 22:54 | 33.50219 | -116.15671 | 32143 ft | 520 kts | 40° |
| 2026-04-25 22:54 | 33.52864 | -116.12683 | 32324 ft | 524 kts | 40° |
| 2026-04-25 22:55 | 33.55517 | -116.09681 | 32586 ft | 526 kts | 40° |
| 2026-04-25 22:55 | 33.59056 | -116.05671 | 32851 ft | 530 kts | 41° |
| 2026-04-25 22:55 | 33.60779 | -116.03509 | 33020 ft | 534 kts | 47° |
| 2026-04-25 22:55 | 33.63232 | -116.00151 | 33246 ft | 537 kts | 46° |
| 2026-04-25 22:56 | 33.65735 | -115.96821 | 33502 ft | 538 kts | 46° |
| 2026-04-25 22:56 | 33.68259 | -115.93484 | 33741 ft | 540 kts | 46° |
| 2026-04-25 22:56 | 33.70788 | -115.90146 | 33996 ft | 541 kts | 46° |
| 2026-04-25 22:56 | 33.73312 | -115.86808 | 34263 ft | 541 kts | 46° |
| 2026-04-25 22:57 | 33.75838 | -115.83464 | 34516 ft | 541 kts | 46° |
| 2026-04-25 22:57 | 33.78368 | -115.80111 | 34761 ft | 541 kts | 46° |
| 2026-04-25 22:57 | 33.83429 | -115.73396 | 34785 ft | 540 kts | 46° |
| 2026-04-25 22:58 | 33.88457 | -115.66711 | 34792 ft | 539 kts | 46° |
| 2026-04-25 22:58 | 33.93489 | -115.60008 | 34775 ft | 539 kts | 45° |
| 2026-04-25 22:59 | 33.98471 | -115.53359 | 34796 ft | 537 kts | 46° |
| 2026-04-25 22:59 | 34.03461 | -115.46689 | 34758 ft | 535 kts | 46° |
| 2026-04-25 23:00 | 34.08447 | -115.40007 | 34727 ft | 537 kts | 46° |
| 2026-04-25 23:00 | 34.13433 | -115.33317 | 34755 ft | 536 kts | 46° |
| 2026-04-25 23:01 | 34.18410 | -115.26625 | 34746 ft | 535 kts | 46° |
| 2026-04-25 23:01 | 34.23380 | -115.19926 | 34723 ft | 535 kts | 46° |
| 2026-04-25 23:02 | 34.28346 | -115.13225 | 34734 ft | 535 kts | 46° |
| 2026-04-25 23:02 | 34.33306 | -115.06516 | 34733 ft | 533 kts | 46° |
| 2026-04-25 23:03 | 34.38240 | -114.99831 | 34711 ft | 532 kts | 46° |
| 2026-04-25 23:03 | 34.43165 | -114.93145 | 34716 ft | 532 kts | 46° |
| 2026-04-25 23:04 | 34.48089 | -114.86446 | 34720 ft | 532 kts | 46° |
| 2026-04-25 23:04 | 34.53011 | -114.79739 | 34734 ft | 532 kts | 46° |
| 2026-04-25 23:05 | 34.57929 | -114.73024 | 34743 ft | 532 kts | 46° |
| 2026-04-25 23:05 | 34.62849 | -114.66293 | 34753 ft | 532 kts | 46° |
| 2026-04-25 23:06 | 34.67739 | -114.59589 | 34769 ft | 529 kts | 46° |
| 2026-04-25 23:06 | 34.72612 | -114.52901 | 34768 ft | 529 kts | 46° |
| 2026-04-25 23:07 | 34.77199 | -114.45920 | 34735 ft | 529 kts | 62° |
| 2026-04-25 23:07 | 34.80696 | -114.38023 | 34738 ft | 531 kts | 61° |
| 2026-04-25 23:08 | 34.84220 | -114.30163 | 34726 ft | 533 kts | 62° |
| 2026-04-25 23:08 | 34.87728 | -114.22215 | 34718 ft | 533 kts | 62° |
| 2026-04-25 23:09 | 34.91228 | -114.14253 | 34711 ft | 533 kts | 62° |
| 2026-04-25 23:09 | 34.94722 | -114.06287 | 34722 ft | 533 kts | 62° |
| 2026-04-25 23:10 | 34.98210 | -113.98317 | 34727 ft | 532 kts | 62° |
| 2026-04-25 23:10 | 35.01685 | -113.90355 | 34729 ft | 532 kts | 62° |
| 2026-04-25 23:11 | 35.05152 | -113.82395 | 34756 ft | 531 kts | 62° |
| 2026-04-25 23:11 | 35.08605 | -113.74445 | 34726 ft | 529 kts | 62° |
| 2026-04-25 23:12 | 35.12050 | -113.66503 | 34731 ft | 529 kts | 62° |
| 2026-04-25 23:12 | 35.15483 | -113.58564 | 34742 ft | 528 kts | 62° |
| 2026-04-25 23:13 | 35.18913 | -113.50616 | 34739 ft | 528 kts | 62° |
| 2026-04-25 23:13 | 35.22312 | -113.42718 | 34747 ft | 528 kts | 62° |
| 2026-04-25 23:14 | 35.25729 | -113.34763 | 34777 ft | 528 kts | 62° |
| 2026-04-25 23:14 | 35.29142 | -113.26796 | 34774 ft | 528 kts | 62° |
| 2026-04-25 23:15 | 35.32551 | -113.18820 | 34788 ft | 529 kts | 62° |
| 2026-04-25 23:15 | 35.35965 | -113.10815 | 34787 ft | 534 kts | 62° |
| 2026-04-25 23:16 | 35.39432 | -113.02663 | 34807 ft | 544 kts | 62° |
| 2026-04-25 23:16 | 35.42940 | -112.94395 | 34821 ft | 548 kts | 62° |
| 2026-04-25 23:17 | 35.46455 | -112.86090 | 34813 ft | 548 kts | 62° |
| 2026-04-25 23:17 | 35.49959 | -112.77790 | 34843 ft | 546 kts | 62° |
| 2026-04-25 23:18 | 35.53439 | -112.69529 | 34848 ft | 544 kts | 62° |
| 2026-04-25 23:18 | 35.56910 | -112.61266 | 34847 ft | 545 kts | 62° |
| 2026-04-25 23:19 | 35.60377 | -112.52991 | 34850 ft | 544 kts | 62° |
| 2026-04-25 23:19 | 35.63837 | -112.44716 | 34858 ft | 545 kts | 62° |
| 2026-04-25 23:20 | 35.67297 | -112.36418 | 34866 ft | 545 kts | 62° |
| 2026-04-25 23:20 | 35.70749 | -112.28118 | 34875 ft | 545 kts | 62° |
| 2026-04-25 23:21 | 35.74197 | -112.19807 | 34881 ft | 545 kts | 62° |
| 2026-04-25 23:21 | 35.77628 | -112.11515 | 34860 ft | 539 kts | 62° |
| 2026-04-25 23:22 | 35.81018 | -112.03303 | 34851 ft | 538 kts | 62° |
| 2026-04-25 23:23 | 35.86099 | -111.90956 | 34902 ft | 538 kts | 62° |
| 2026-04-25 23:23 | 35.89451 | -111.82784 | 34871 ft | 538 kts | 63° |
| 2026-04-25 23:24 | 35.92826 | -111.74533 | 34839 ft | 539 kts | 63° |
| 2026-04-25 23:24 | 35.96195 | -111.66280 | 34770 ft | 538 kts | 63° |
| 2026-04-25 23:25 | 35.99567 | -111.58000 | 34778 ft | 539 kts | 63° |
| 2026-04-25 23:25 | 36.02927 | -111.49731 | 34750 ft | 539 kts | 63° |
| 2026-04-25 23:26 | 36.06282 | -111.41454 | 34748 ft | 539 kts | 63° |
| 2026-04-25 23:26 | 36.09634 | -111.33165 | 34743 ft | 539 kts | 63° |
| 2026-04-25 23:27 | 36.13112 | -111.24965 | 34741 ft | 538 kts | 59° |
| 2026-04-25 23:27 | 36.16823 | -111.16887 | 34738 ft | 544 kts | 60° |
| 2026-04-25 23:28 | 36.20537 | -111.08692 | 34726 ft | 545 kts | 60° |
| 2026-04-25 23:28 | 36.24236 | -111.00505 | 34727 ft | 545 kts | 60° |
| 2026-04-25 23:29 | 36.27931 | -110.92309 | 34731 ft | 545 kts | 60° |
| 2026-04-25 23:29 | 36.31594 | -110.84161 | 34722 ft | 545 kts | 60° |
| 2026-04-25 23:30 | 36.35296 | -110.75907 | 34715 ft | 543 kts | 60° |
| 2026-04-25 23:30 | 36.38930 | -110.67785 | 34715 ft | 542 kts | 60° |
| 2026-04-25 23:31 | 36.42584 | -110.59600 | 34705 ft | 542 kts | 60° |
| 2026-04-25 23:31 | 36.46232 | -110.51404 | 34708 ft | 542 kts | 60° |
| 2026-04-25 23:32 | 36.49871 | -110.43213 | 34689 ft | 541 kts | 60° |
| 2026-04-25 23:32 | 36.53503 | -110.35016 | 34699 ft | 541 kts | 60° |
| 2026-04-25 23:33 | 36.57125 | -110.26819 | 34692 ft | 541 kts | 60° |
| 2026-04-25 23:33 | 36.60742 | -110.18615 | 34678 ft | 540 kts | 60° |
| 2026-04-25 23:34 | 36.64353 | -110.10402 | 34677 ft | 541 kts | 60° |
| 2026-04-25 23:34 | 36.67963 | -110.02174 | 34663 ft | 541 kts | 60° |
| 2026-04-25 23:35 | 36.71565 | -109.93940 | 34667 ft | 541 kts | 61° |
| 2026-04-25 23:35 | 36.75135 | -109.85760 | 34662 ft | 541 kts | 61° |
| 2026-04-25 23:36 | 36.78725 | -109.77514 | 34666 ft | 541 kts | 60° |
| 2026-04-25 23:36 | 36.82310 | -109.69259 | 34649 ft | 541 kts | 61° |
| 2026-04-25 23:37 | 36.85887 | -109.61002 | 34651 ft | 541 kts | 61° |
| 2026-04-25 23:37 | 36.89459 | -109.52733 | 34661 ft | 541 kts | 61° |
| 2026-04-25 23:38 | 36.93023 | -109.44464 | 34651 ft | 541 kts | 61° |
| 2026-04-25 23:38 | 36.96586 | -109.36176 | 34665 ft | 541 kts | 61° |
| 2026-04-25 23:39 | 37.00139 | -109.27888 | 34664 ft | 541 kts | 61° |
| 2026-04-25 23:39 | 37.03686 | -109.19595 | 34666 ft | 541 kts | 61° |
| 2026-04-25 23:40 | 37.07228 | -109.11291 | 34667 ft | 541 kts | 61° |
| 2026-04-25 23:40 | 37.10772 | -109.02963 | 34684 ft | 542 kts | 61° |
| 2026-04-25 23:41 | 37.14307 | -108.94634 | 34687 ft | 541 kts | 61° |
| 2026-04-25 23:41 | 37.17831 | -108.86309 | 34686 ft | 541 kts | 61° |
| 2026-04-25 23:42 | 37.20760 | -108.79371 | 34697 ft | 541 kts | 61° |
| 2026-04-25 23:42 | 37.24282 | -108.71011 | 34703 ft | 542 kts | 61° |
| 2026-04-25 23:42 | 37.26616 | -108.65460 | 34880 ft | 543 kts | 61° |
| 2026-04-25 23:43 | 37.27801 | -108.62637 | 34881 ft | 543 kts | 61° |
| 2026-04-25 23:43 | 37.31317 | -108.54248 | 34876 ft | 543 kts | 61° |
| 2026-04-25 23:44 | 37.34830 | -108.45844 | 34853 ft | 543 kts | 61° |
| 2026-04-25 23:44 | 37.38329 | -108.37449 | 34815 ft | 542 kts | 61° |
| 2026-04-25 23:45 | 37.41825 | -108.29042 | 34788 ft | 542 kts | 61° |
| 2026-04-25 23:45 | 37.45316 | -108.20623 | 34758 ft | 542 kts | 61° |
| 2026-04-25 23:46 | 37.48800 | -108.12200 | 34777 ft | 544 kts | 61° |
| 2026-04-25 23:46 | 37.52293 | -108.03734 | 34775 ft | 545 kts | 62° |
| 2026-04-25 23:47 | 37.55773 | -107.95271 | 34808 ft | 545 kts | 62° |
| 2026-04-25 23:47 | 37.59258 | -107.86781 | 34792 ft | 544 kts | 62° |
| 2026-04-25 23:48 | 37.62710 | -107.78348 | 34811 ft | 544 kts | 62° |
| 2026-04-25 23:48 | 37.66176 | -107.69865 | 34809 ft | 544 kts | 62° |
| 2026-04-25 23:49 | 37.69635 | -107.61374 | 34824 ft | 544 kts | 62° |
| 2026-04-25 23:49 | 37.73089 | -107.52877 | 34838 ft | 544 kts | 62° |
| 2026-04-25 23:49 | 37.74951 | -107.48735 | 34808 ft | 540 kts | 51° |
| 2026-04-25 23:50 | 37.77437 | -107.45229 | 34859 ft | 532 kts | 38° |
| 2026-04-25 23:50 | 37.82873 | -107.38840 | 34824 ft | 533 kts | 38° |
| 2026-04-25 23:51 | 37.88298 | -107.32435 | 34828 ft | 533 kts | 38° |
| 2026-04-25 23:51 | 37.93685 | -107.26062 | 34815 ft | 533 kts | 38° |
| 2026-04-25 23:52 | 37.99108 | -107.19631 | 34812 ft | 534 kts | 38° |
| 2026-04-25 23:52 | 38.04522 | -107.13197 | 34799 ft | 533 kts | 38° |
| 2026-04-25 23:53 | 38.09932 | -107.06754 | 34823 ft | 533 kts | 38° |
| 2026-04-25 23:53 | 38.15229 | -107.00207 | 34763 ft | 534 kts | 46° |
| 2026-04-25 23:54 | 38.20020 | -106.92970 | 34793 ft | 535 kts | 46° |
| 2026-04-25 23:54 | 38.24808 | -106.85724 | 34776 ft | 535 kts | 46° |
| 2026-04-25 23:55 | 38.29586 | -106.78449 | 34758 ft | 536 kts | 46° |
| 2026-04-25 23:55 | 38.34338 | -106.71196 | 34787 ft | 523 kts | 46° |
| 2026-04-25 23:56 | 38.38933 | -106.64172 | 34800 ft | 514 kts | 46° |
| 2026-04-25 23:56 | 38.41233 | -106.60651 | 34578 ft | 517 kts | 46° |
| 2026-04-25 23:56 | 38.43519 | -106.57145 | 34073 ft | 513 kts | 46° |
| 2026-04-25 23:56 | 38.45789 | -106.53661 | 33735 ft | 505 kts | 47° |
| 2026-04-25 23:57 | 38.48016 | -106.50238 | 33482 ft | 502 kts | 46° |
| 2026-04-25 23:57 | 38.50265 | -106.46782 | 33270 ft | 512 kts | 47° |
| 2026-04-25 23:57 | 38.52563 | -106.43242 | 33041 ft | 520 kts | 47° |
| 2026-04-25 23:57 | 38.54878 | -106.39673 | 32818 ft | 523 kts | 47° |
| 2026-04-25 23:58 | 38.57195 | -106.36096 | 32604 ft | 522 kts | 47° |
| 2026-04-25 23:58 | 38.59499 | -106.32535 | 32362 ft | 518 kts | 47° |
| 2026-04-25 23:58 | 38.61784 | -106.29002 | 32141 ft | 514 kts | 47° |
| 2026-04-25 23:58 | 38.64053 | -106.25490 | 31916 ft | 511 kts | 47° |
| 2026-04-25 23:59 | 38.66324 | -106.22011 | 31748 ft | 509 kts | 47° |
| 2026-04-25 23:59 | 38.70846 | -106.15108 | 31617 ft | 504 kts | 47° |
| 2026-04-26 00:00 | 38.75333 | -106.08234 | 31407 ft | 501 kts | 47° |
| 2026-04-26 00:00 | 38.77532 | -106.04860 | 31297 ft | 500 kts | 47° |
| 2026-04-26 00:00 | 38.79760 | -106.01437 | 31125 ft | 499 kts | 47° |
| 2026-04-26 00:00 | 38.81972 | -105.98032 | 30650 ft | 495 kts | 47° |
| 2026-04-26 00:01 | 38.84177 | -105.94639 | 29948 ft | 496 kts | 47° |
| 2026-04-26 00:01 | 38.86388 | -105.91233 | 28974 ft | 497 kts | 47° |
| 2026-04-26 00:01 | 38.88585 | -105.87834 | 28385 ft | 493 kts | 48° |
| 2026-04-26 00:01 | 38.90759 | -105.84448 | 27738 ft | 490 kts | 48° |
| 2026-04-26 00:02 | 38.92920 | -105.81086 | 27167 ft | 486 kts | 48° |
| 2026-04-26 00:02 | 38.95068 | -105.77740 | 26561 ft | 484 kts | 48° |
| 2026-04-26 00:02 | 38.97206 | -105.74405 | 25920 ft | 483 kts | 48° |
| 2026-04-26 00:02 | 38.99337 | -105.71076 | 25279 ft | 482 kts | 49° |
| 2026-04-26 00:03 | 39.01463 | -105.67757 | 24664 ft | 479 kts | 49° |
| 2026-04-26 00:03 | 39.03582 | -105.64467 | 24168 ft | 475 kts | 48° |
| 2026-04-26 00:03 | 39.05675 | -105.61215 | 23735 ft | 470 kts | 49° |
| 2026-04-26 00:03 | 39.07750 | -105.57988 | 23227 ft | 466 kts | 49° |
| 2026-04-26 00:04 | 39.09806 | -105.54786 | 22646 ft | 461 kts | 49° |
| 2026-04-26 00:04 | 39.11836 | -105.51621 | 22165 ft | 455 kts | 49° |
| 2026-04-26 00:04 | 39.13838 | -105.48496 | 21704 ft | 450 kts | 49° |
| 2026-04-26 00:04 | 39.15804 | -105.45391 | 21172 ft | 446 kts | 50° |
| 2026-04-26 00:05 | 39.17755 | -105.42294 | 20682 ft | 443 kts | 50° |
| 2026-04-26 00:05 | 39.19683 | -105.39234 | 20223 ft | 436 kts | 50° |
| 2026-04-26 00:05 | 39.21585 | -105.36211 | 19780 ft | 432 kts | 50° |
| 2026-04-26 00:05 | 39.23463 | -105.33227 | 19396 ft | 427 kts | 50° |
| 2026-04-26 00:06 | 39.25335 | -105.30250 | 18915 ft | 425 kts | 50° |
| 2026-04-26 00:06 | 39.27180 | -105.27294 | 18450 ft | 423 kts | 52° |
| 2026-04-26 00:06 | 39.28568 | -105.23942 | 17797 ft | 427 kts | 73° |
| 2026-04-26 00:06 | 39.29083 | -105.20211 | 17361 ft | 420 kts | 85° |
| 2026-04-26 00:07 | 39.29507 | -105.16485 | 16909 ft | 417 kts | 83° |
| 2026-04-26 00:07 | 39.29941 | -105.12867 | 16468 ft | 413 kts | 83° |
| 2026-04-26 00:07 | 39.30375 | -105.09198 | 15996 ft | 410 kts | 83° |
| 2026-04-26 00:07 | 39.30801 | -105.05575 | 15533 ft | 407 kts | 83° |
| 2026-04-26 00:08 | 39.31223 | -105.01968 | 15054 ft | 405 kts | 83° |
| 2026-04-26 00:08 | 39.31780 | -104.98431 | 14727 ft | 399 kts | 78° |
| 2026-04-26 00:08 | 39.32430 | -104.94985 | 14416 ft | 392 kts | 78° |
| 2026-04-26 00:08 | 39.33056 | -104.91576 | 14092 ft | 386 kts | 78° |
| 2026-04-26 00:09 | 39.33664 | -104.88232 | 13915 ft | 377 kts | 76° |
| 2026-04-26 00:09 | 39.34438 | -104.85032 | 13651 ft | 371 kts | 72° |
| 2026-04-26 00:09 | 39.35236 | -104.81886 | 13215 ft | 363 kts | 73° |
| 2026-04-26 00:09 | 39.36005 | -104.78816 | 12935 ft | 356 kts | 73° |
| 2026-04-26 00:10 | 39.36784 | -104.75788 | 12532 ft | 353 kts | 73° |
| 2026-04-26 00:10 | 39.37799 | -104.72907 | 12050 ft | 355 kts | 54° |
| 2026-04-26 00:10 | 39.39624 | -104.70841 | 11546 ft | 356 kts | 27° |
| 2026-04-26 00:10 | 39.41876 | -104.69576 | 11224 ft | 351 kts | 24° |
| 2026-04-26 00:11 | 39.44205 | -104.68776 | 10786 ft | 344 kts | 1° |
| 2026-04-26 00:11 | 39.46546 | -104.68942 | 10443 ft | 330 kts | 358° |
| 2026-04-26 00:11 | 39.48807 | -104.69020 | 10089 ft | 319 kts | 360° |
| 2026-04-26 00:11 | 39.50971 | -104.69056 | 9975 ft | 301 kts | 360° |
| 2026-04-26 00:12 | 39.53011 | -104.69090 | 10000 ft | 286 kts | 0° |
| 2026-04-26 00:12 | 39.54957 | -104.69088 | 9998 ft | 273 kts | 360° |
| 2026-04-26 00:12 | 39.56825 | -104.69069 | 9997 ft | 266 kts | 360° |
| 2026-04-26 00:12 | 39.58671 | -104.69047 | 9984 ft | 264 kts | 360° |
| 2026-04-26 00:13 | 39.60518 | -104.69026 | 9817 ft | 266 kts | 360° |
| 2026-04-26 00:13 | 39.62376 | -104.69005 | 9537 ft | 267 kts | 0° |
| 2026-04-26 00:13 | 39.64228 | -104.68983 | 9261 ft | 265 kts | 0° |
| 2026-04-26 00:13 | 39.66062 | -104.68961 | 9014 ft | 261 kts | 1° |
| 2026-04-26 00:14 | 39.67840 | -104.68932 | 8961 ft | 248 kts | 1° |
| 2026-04-26 00:14 | 39.69558 | -104.68915 | 8658 ft | 248 kts | 1° |
| 2026-04-26 00:14 | 39.71260 | -104.68902 | 8337 ft | 248 kts | 2° |
| 2026-04-26 00:14 | 39.72994 | -104.68881 | 8003 ft | 249 kts | 2° |
| 2026-04-26 00:15 | 39.74714 | -104.68860 | 7681 ft | 246 kts | 2° |
| 2026-04-26 00:15 | 39.76405 | -104.68841 | 7345 ft | 237 kts | 4° |
| 2026-04-26 00:15 | 39.77996 | -104.68825 | 7134 ft | 218 kts | 3° |
| 2026-04-26 00:15 | 39.79426 | -104.68810 | 6869 ft | 192 kts | 5° |
| 2026-04-26 00:16 | 39.80687 | -104.68796 | 6597 ft | 173 kts | 6° |
| 2026-04-26 00:16 | 39.81842 | -104.68773 | 6324 ft | 161 kts | 5° |
| 2026-04-26 00:16 | 39.82943 | -104.68773 | 6124 ft | 156 kts | 4° |
| 2026-04-26 00:16 | 39.84022 | -104.68740 | 5915 ft | 153 kts | 3° |
| 2026-04-26 00:17 | 39.85084 | -104.68751 | 5644 ft | 152 kts | 6° |
| 2026-04-26 00:17 | 39.86142 | -104.68726 | 5454 ft | 152 kts | 6° |
| 2026-04-26 00:17 | 39.87146 | -104.68705 | 5363 ft | 122 kts | 359° |
| 2026-04-26 00:17 | 39.87767 | -104.68699 | 5363 ft | 61 kts | 360° |
| 2026-04-26 00:18 | 39.88185 | -104.68697 | 5363 ft | 54 kts | 0° |
| 2026-04-26 00:18 | 39.88469 | -104.68653 | 5361 ft | 27 kts | 18° |
| 2026-04-26 00:18 | 39.88593 | -104.68557 | 5362 ft | 15 kts | 62° |
| 2026-04-26 00:18 | 39.88569 | -104.68496 | 5363 ft | 7 kts | 148° |
| 2026-04-26 00:19 | 39.88507 | -104.68482 | 5363 ft | 11 kts | 179° |